Minerva Grace — SVBN7 — position and weather

sailwx.info

Track history (hours):
 
Tides and Currents Weather Stations Pressure Air Temp Water Temp Dewpoint Dewpoint Depression Visibility Wind Speed Wind Dir Waves Ship Positions

Minerva Grace

Last reported at 2016-May-06 09:18 UTC. Time now 2016-May-06 11:07 UTC.
Position N 34°16' E 033°01'.

Length 183 m; draft 12.5 m.

Type: Ship (hazmat cat C). MMSI: 241193000.

Date/timePositionNaut miles runAvg speedWind from/ knotsBaromVisibWave heightAir tempDewpointWater temp
2016-May-06 09:18N 34°16' E 033°01'4 4.8
2016-May-06 08:33N 34°15' E 033°06'5 4.9
2016-May-06 07:34N 34°15' E 033°12'2 0.4
2016-May-06 03:17N 34°16' E 033°14'5 7.4
2016-May-06 02:34N 34°16' E 033°07'7 7.5
2016-May-06 01:34N 34°15' E 032°58'7 7.3
2016-May-06 00:33N 34°15' E 032°49'5 0.2
2016-May-05 03:16N 34°17' E 032°44'3 4.8
2016-May-05 02:34N 34°17' E 032°48'4 4.5
2016-May-05 01:34N 34°16' E 032°53'8 4.2
2016-May-04 23:33N 34°16' E 033°04'4 3.8
2016-May-04 22:33N 34°16' E 033°08'4 3.6
2016-May-04 21:33N 34°16' E 033°13'19 1.0
2016-May-04 02:25N 34°26' E 033°32'2 2.6
2016-May-04 01:32N 34°27' E 033°30'2 2.4
2016-May-04 00:33N 34°29' E 033°28'2 1.8
2016-May-03 23:18N 34°30' E 033°25'1 1.3
2016-May-03 22:29N 34°29' E 033°25'1 0.6
2016-May-03 21:29N 34°29' E 033°25'0 0.4
2016-May-03 20:26N 34°29' E 033°25'0 0.3
2016-May-03 19:32N 34°29' E 033°24'0 0.2
2016-May-03 18:32N 34°30' E 033°24'0 0.3
2016-May-03 17:32N 34°30' E 033°24'0 0.4
2016-May-03 16:32N 34°30' E 033°24'0 0.4
2016-May-03 15:32N 34°30' E 033°23'0 0.3
2016-May-03 14:32N 34°31' E 033°23'0 0.2
2016-May-03 13:32N 34°31' E 033°23'0 0.3
2016-May-03 12:32N 34°31' E 033°22'0 0.3
2016-May-03 11:32N 34°31' E 033°22'0 0.3
2016-May-03 10:32N 34°31' E 033°22'0 0.5
2016-May-03 09:32N 34°31' E 033°21'0 0.2
2016-May-03 08:32N 34°31' E 033°21'2 2.0
2016-May-03 07:33N 34°31' E 033°23'5 4.6
2016-May-03 06:33N 34°32' E 033°28'2 0.8
2016-May-03 04:27N 34°32' E 033°31'0 0.2
2016-May-03 03:30N 34°32' E 033°30'0 0.3
2016-May-03 02:33N 34°32' E 033°31'0 0.2
2016-May-03 01:33N 34°32' E 033°31'0 0.1
2016-May-03 00:33N 34°31' E 033°31'0 0.3
2016-May-02 23:33N 34°31' E 033°31'0 0.2
2016-May-02 22:33N 34°31' E 033°31'0 0.1
2016-May-02 21:33N 34°31' E 033°31'0 0.2
2016-May-02 20:27N 34°31' E 033°31'0 0.4
2016-May-02 19:33N 34°32' E 033°31'4 1.0
2016-May-02 15:30N 34°31' E 033°26'0 0.4
2016-May-02 14:27N 34°31' E 033°26'4 4.4
2016-May-02 13:33N 34°27' E 033°28'5 4.7
2016-May-02 12:27N 34°22' E 033°29'2 2.1
2016-May-02 11:19N 34°22' E 033°26'4 4.8
2016-May-02 10:33N 34°24' E 033°23'5 4.8
2016-May-02 09:32N 34°28' E 033°19'3 3.2
2016-May-02 08:33N 34°30' E 033°16'0 0.4
2016-May-02 07:33N 34°30' E 033°16'0 0.2
2016-May-02 06:33N 34°29' E 033°17'1 0.6
2016-May-02 05:33N 34°29' E 033°17'1110.1
2016-May-02 04:28N 34°26' E 033°04'1112.4
2016-May-02 03:33N 34°24' E 032°50'1212.3
2016-May-02 02:33N 34°26' E 032°36'2812.2
2016-May-02 00:16N 34°33' E 032°03'912.4
2016-May-01 23:33N 34°36' E 031°53'29012.1
2016-Apr-30 23:28N 36°42' E 026°31'1412.6
2016-Apr-30 22:23N 36°52' E 026°19'1512.4
2016-Apr-30 21:10N 37°02' E 026°05'812.4
2016-Apr-30 20:34N 37°07' E 025°58'1211.5
2016-Apr-30 19:33N 37°18' E 025°52'1312.7
2016-Apr-30 18:33N 37°31' E 025°52'1312.9
2016-Apr-30 17:31N 37°44' E 025°52'232 8.6
2016-Apr-29 14:30N 40°52' E 028°48'9 8.0
2016-Apr-29 13:23N 40°58' E 028°57'280 7.7
2016-Apr-28 01:14N 42°50' E 034°41'17611.8
2016-Apr-27 10:20N 43°51' E 038°29'912.0
2016-Apr-27 09:33N 43°54' E 038°41'1212.3
2016-Apr-27 08:34N 43°58' E 038°57'9 8.3
2016-Apr-27 07:32N 44°05' E 039°04'0 0.0
2016-Apr-27 06:32N 44°05' E 039°04'0 0.0
2016-Apr-27 05:32N 44°05' E 039°04'0 0.0
2016-Apr-27 04:32N 44°05' E 039°04'0 0.0
2016-Apr-27 03:32N 44°05' E 039°04'0 0.0
2016-Apr-27 02:32N 44°05' E 039°04'0 0.0
2016-Apr-27 01:32N 44°05' E 039°04'0 0.0
2016-Apr-27 00:32N 44°05' E 039°04'0 0.0
2016-Apr-26 23:32N 44°05' E 039°04'0 0.0
2016-Apr-26 22:32N 44°05' E 039°04'0 0.0
2016-Apr-26 21:32N 44°05' E 039°04'0 0.0
2016-Apr-26 20:32N 44°05' E 039°04'0 0.0
2016-Apr-26 19:32N 44°05' E 039°04'0 0.0
2016-Apr-26 18:32N 44°05' E 039°04'0 0.0
2016-Apr-26 17:32N 44°05' E 039°04'0 0.0
2016-Apr-26 16:32N 44°05' E 039°04'0 0.0
2016-Apr-26 15:32N 44°05' E 039°04'0 0.0
2016-Apr-26 14:32N 44°05' E 039°04'0 0.0
2016-Apr-26 13:32N 44°05' E 039°04'0 0.0
2016-Apr-26 12:32N 44°05' E 039°04'0 0.0
2016-Apr-26 11:32N 44°05' E 039°04'0 0.0
2016-Apr-26 10:32N 44°05' E 039°04'0 0.0
2016-Apr-26 09:32N 44°05' E 039°04'  
Track history (hours):
 
Tides and Currents Weather Stations Pressure Air Temp Water Temp Dewpoint Dewpoint Depression Visibility Wind Speed Wind Dir Waves Ship Positions

Minerva Grace

Last reported at 2016-May-06 09:18 UTC. Time now 2016-May-06 11:07 UTC.
Position N 34°16' E 033°01'.

Length 183 m; draft 12.5 m.

Type: Ship (hazmat cat C). MMSI: 241193000.

Date/timePositionNaut miles runAvg speedWind from/ knotsBaromVisibWave heightAir tempDewpointWater temp
2016-May-06 09:18N 34°16' E 033°01'4 4.8
2016-May-06 08:33N 34°15' E 033°06'5 4.9
2016-May-06 07:34N 34°15' E 033°12'2 0.4
2016-May-06 03:17N 34°16' E 033°14'5 7.4
2016-May-06 02:34N 34°16' E 033°07'7 7.5
2016-May-06 01:34N 34°15' E 032°58'7 7.3
2016-May-06 00:33N 34°15' E 032°49'5 0.2
2016-May-05 03:16N 34°17' E 032°44'3 4.8
2016-May-05 02:34N 34°17' E 032°48'4 4.5
2016-May-05 01:34N 34°16' E 032°53'8 4.2
2016-May-04 23:33N 34°16' E 033°04'4 3.8
2016-May-04 22:33N 34°16' E 033°08'4 3.6
2016-May-04 21:33N 34°16' E 033°13'19 1.0
2016-May-04 02:25N 34°26' E 033°32'2 2.6
2016-May-04 01:32N 34°27' E 033°30'2 2.4
2016-May-04 00:33N 34°29' E 033°28'2 1.8
2016-May-03 23:18N 34°30' E 033°25'1 1.3
2016-May-03 22:29N 34°29' E 033°25'1 0.6
2016-May-03 21:29N 34°29' E 033°25'0 0.4
2016-May-03 20:26N 34°29' E 033°25'0 0.3
2016-May-03 19:32N 34°29' E 033°24'0 0.2
2016-May-03 18:32N 34°30' E 033°24'0 0.3
2016-May-03 17:32N 34°30' E 033°24'0 0.4
2016-May-03 16:32N 34°30' E 033°24'0 0.4
2016-May-03 15:32N 34°30' E 033°23'0 0.3
2016-May-03 14:32N 34°31' E 033°23'0 0.2
2016-May-03 13:32N 34°31' E 033°23'0 0.3
2016-May-03 12:32N 34°31' E 033°22'0 0.3
2016-May-03 11:32N 34°31' E 033°22'0 0.3
2016-May-03 10:32N 34°31' E 033°22'0 0.5
2016-May-03 09:32N 34°31' E 033°21'0 0.2
2016-May-03 08:32N 34°31' E 033°21'2 2.0
2016-May-03 07:33N 34°31' E 033°23'5 4.6
2016-May-03 06:33N 34°32' E 033°28'2 0.8
2016-May-03 04:27N 34°32' E 033°31'0 0.2
2016-May-03 03:30N 34°32' E 033°30'0 0.3
2016-May-03 02:33N 34°32' E 033°31'0 0.2
2016-May-03 01:33N 34°32' E 033°31'0 0.1
2016-May-03 00:33N 34°31' E 033°31'0 0.3
2016-May-02 23:33N 34°31' E 033°31'0 0.2
2016-May-02 22:33N 34°31' E 033°31'0 0.1
2016-May-02 21:33N 34°31' E 033°31'0 0.2
2016-May-02 20:27N 34°31' E 033°31'0 0.4
2016-May-02 19:33N 34°32' E 033°31'4 1.0
2016-May-02 15:30N 34°31' E 033°26'0 0.4
2016-May-02 14:27N 34°31' E 033°26'4 4.4
2016-May-02 13:33N 34°27' E 033°28'5 4.7
2016-May-02 12:27N 34°22' E 033°29'2 2.1
2016-May-02 11:19N 34°22' E 033°26'4 4.8
2016-May-02 10:33N 34°24' E 033°23'5 4.8
2016-May-02 09:32N 34°28' E 033°19'3 3.2
2016-May-02 08:33N 34°30' E 033°16'0 0.4
2016-May-02 07:33N 34°30' E 033°16'0 0.2
2016-May-02 06:33N 34°29' E 033°17'1 0.6
2016-May-02 05:33N 34°29' E 033°17'1110.1
2016-May-02 04:28N 34°26' E 033°04'1112.4
2016-May-02 03:33N 34°24' E 032°50'1212.3
2016-May-02 02:33N 34°26' E 032°36'2812.2
2016-May-02 00:16N 34°33' E 032°03'912.4
2016-May-01 23:33N 34°36' E 031°53'29012.1
2016-Apr-30 23:28N 36°42' E 026°31'1412.6
2016-Apr-30 22:23N 36°52' E 026°19'1512.4
2016-Apr-30 21:10N 37°02' E 026°05'812.4
2016-Apr-30 20:34N 37°07' E 025°58'1211.5
2016-Apr-30 19:33N 37°18' E 025°52'1312.7
2016-Apr-30 18:33N 37°31' E 025°52'1312.9
2016-Apr-30 17:31N 37°44' E 025°52'232 8.6
2016-Apr-29 14:30N 40°52' E 028°48'9 8.0
2016-Apr-29 13:23N 40°58' E 028°57'280 7.7
2016-Apr-28 01:14N 42°50' E 034°41'17611.8
2016-Apr-27 10:20N 43°51' E 038°29'912.0
2016-Apr-27 09:33N 43°54' E 038°41'1212.3
2016-Apr-27 08:34N 43°58' E 038°57'9 8.3
2016-Apr-27 07:32N 44°05' E 039°04'0 0.0
2016-Apr-27 06:32N 44°05' E 039°04'0 0.0
2016-Apr-27 05:32N 44°05' E 039°04'0 0.0
2016-Apr-27 04:32N 44°05' E 039°04'0 0.0
2016-Apr-27 03:32N 44°05' E 039°04'0 0.0
2016-Apr-27 02:32N 44°05' E 039°04'0 0.0
2016-Apr-27 01:32N 44°05' E 039°04'0 0.0
2016-Apr-27 00:32N 44°05' E 039°04'0 0.0
2016-Apr-26 23:32N 44°05' E 039°04'0 0.0
2016-Apr-26 22:32N 44°05' E 039°04'0 0.0
2016-Apr-26 21:32N 44°05' E 039°04'0 0.0
2016-Apr-26 20:32N 44°05' E 039°04'0 0.0
2016-Apr-26 19:32N 44°05' E 039°04'0 0.0
2016-Apr-26 18:32N 44°05' E 039°04'0 0.0
2016-Apr-26 17:32N 44°05' E 039°04'0 0.0
2016-Apr-26 16:32N 44°05' E 039°04'0 0.0
2016-Apr-26 15:32N 44°05' E 039°04'0 0.0
2016-Apr-26 14:32N 44°05' E 039°04'0 0.0
2016-Apr-26 13:32N 44°05' E 039°04'0 0.0
2016-Apr-26 12:32N 44°05' E 039°04'0 0.0
2016-Apr-26 11:32N 44°05' E 039°04'0 0.0
2016-Apr-26 10:32N 44°05' E 039°04'0 0.0
2016-Apr-26 09:32N 44°05' E 039°04'  

Dump ship's entire track history